createdAt,value
2023-03-22T00:00:00.210Z,0.85
2023-03-22T00:00:22.110Z,0.93
2023-03-22T00:00:43.785Z,0.77
2023-03-22T00:01:11.302Z,0.80
2023-03-22T00:01:34.772Z,0.70
2023-03-22T00:01:56.612Z,0.70
2023-03-22T00:02:18.264Z,0.93
2023-03-22T00:02:42.059Z,0.70
2023-03-22T00:03:04.786Z,0.80
2023-03-22T00:03:27.606Z,0.60
2023-03-22T00:03:50.787Z,0.77
2023-03-22T00:04:12.467Z,0.80
2023-03-22T00:04:34.158Z,0.77
2023-03-22T00:04:57.058Z,0.80
2023-03-22T00:05:18.984Z,1.10
2023-03-22T00:05:40.650Z,1.00
2023-03-22T00:06:02.384Z,0.80
2023-03-22T00:06:26.641Z,0.77
2023-03-22T00:06:49.516Z,0.90
2023-03-22T00:07:12.286Z,0.90
2023-03-22T00:07:34.064Z,0.82
2023-03-22T00:07:57.919Z,1.20
2023-03-22T00:08:20.834Z,1.10
2023-03-22T00:08:43.481Z,0.90
2023-03-22T00:09:05.131Z,0.80
2023-03-22T00:09:27.726Z,1.10
2023-03-22T00:09:49.405Z,0.93
2023-03-22T00:10:15.132Z,1.20
2023-03-22T00:10:38.498Z,1.00
2023-03-22T00:11:01.565Z,0.77
2023-03-22T00:11:24.321Z,0.70
2023-03-22T00:11:46.224Z,0.75
2023-03-22T00:12:08.904Z,0.98
2023-03-22T00:12:30.554Z,1.00
2023-03-22T00:12:52.241Z,1.08
2023-03-22T00:13:13.854Z,0.93
2023-03-22T00:13:37.101Z,0.95
2023-03-22T00:14:01.270Z,0.77
2023-03-22T00:14:23.025Z,0.88
2023-03-22T00:14:45.417Z,0.90
2023-03-22T00:15:08.131Z,0.95
2023-03-22T00:15:30.792Z,0.73
2023-03-22T00:15:52.418Z,0.80
2023-03-22T00:16:14.847Z,0.73
2023-03-22T00:16:36.656Z,1.03
2023-03-22T00:17:01.874Z,1.08
2023-03-22T00:17:25.746Z,1.20
2023-03-22T00:17:47.770Z,0.85
2023-03-22T00:18:12.443Z,1.17
2023-03-22T00:18:35.079Z,1.08
2023-03-22T00:18:56.705Z,0.70
2023-03-22T00:19:18.465Z,0.77
2023-03-22T00:19:42.094Z,0.80
2023-03-22T00:20:08.564Z,0.75
2023-03-22T00:20:30.526Z,0.98
2023-03-22T00:20:54.177Z,0.88
2023-03-22T00:21:17.176Z,0.70
2023-03-22T00:21:39.872Z,1.40
2023-03-22T00:22:03.494Z,1.05
2023-03-22T00:22:26.622Z,1.00
2023-03-22T00:22:48.231Z,0.80
2023-03-22T00:23:10.843Z,0.65
2023-03-22T00:23:32.482Z,0.95
2023-03-22T00:23:54.261Z,0.85
2023-03-22T00:24:15.996Z,0.98
2023-03-22T00:24:39.164Z,1.00
2023-03-22T00:25:08.128Z,0.88
2023-03-22T00:25:32.620Z,0.90
2023-03-22T00:25:55.405Z,0.95
2023-03-22T00:26:17.938Z,0.70
2023-03-22T00:26:39.568Z,0.80
2023-03-22T00:27:02.681Z,0.95
2023-03-22T00:27:25.981Z,0.80
2023-03-22T00:27:48.618Z,0.80
2023-03-22T00:28:10.274Z,0.80
2023-03-22T00:28:32.305Z,0.90
2023-03-22T00:28:53.885Z,1.05
2023-03-22T00:29:16.497Z,0.90
2023-03-22T00:29:38.301Z,1.08
2023-03-22T00:29:59.931Z,0.90
2023-03-22T00:30:21.583Z,0.90
2023-03-22T00:30:51.000Z,0.88
2023-03-22T00:31:13.848Z,0.80
2023-03-22T00:31:35.736Z,0.90
2023-03-22T00:31:57.649Z,1.20
2023-03-22T00:32:19.792Z,1.25
2023-03-22T00:32:42.348Z,0.93
2023-03-22T00:33:06.168Z,0.90
2023-03-22T00:33:28.389Z,1.20
2023-03-22T00:33:50.299Z,1.10
2023-03-22T00:34:12.714Z,1.08
2023-03-22T00:34:35.565Z,1.00
2023-03-22T00:34:57.668Z,1.10
2023-03-22T00:35:22.238Z,0.73
2023-03-22T00:35:48.533Z,0.80
2023-03-22T00:36:13.096Z,1.08
2023-03-22T00:36:34.799Z,0.60
2023-03-22T00:36:56.427Z,0.90
2023-03-22T00:37:18.247Z,1.00
2023-03-22T00:37:40.570Z,0.88
2023-03-22T00:38:14.255Z,1.08
2023-03-22T00:38:42.783Z,0.85
2023-03-22T00:39:05.236Z,1.15
2023-03-22T00:39:27.911Z,0.90
2023-03-22T00:39:49.580Z,0.80
2023-03-22T00:40:13.395Z,0.80
2023-03-22T00:40:36.488Z,0.80
2023-03-22T00:41:05.346Z,0.80
2023-03-22T00:41:28.005Z,0.88
2023-03-22T00:41:49.643Z,0.90
2023-03-22T00:42:11.293Z,0.80
2023-03-22T00:42:33.071Z,0.60
2023-03-22T00:42:55.664Z,0.77
2023-03-22T00:43:17.574Z,0.93
2023-03-22T00:43:40.123Z,0.75
2023-03-22T00:44:02.732Z,1.05
2023-03-22T00:44:25.652Z,1.23
2023-03-22T00:44:47.297Z,0.75
2023-03-22T00:45:11.418Z,0.80
2023-03-22T00:45:36.221Z,0.90
2023-03-22T00:45:58.038Z,0.80
2023-03-22T00:46:21.239Z,0.77
2023-03-22T00:46:42.943Z,0.77
2023-03-22T00:47:05.821Z,0.70
2023-03-22T00:47:27.589Z,0.73
2023-03-22T00:47:49.590Z,1.10
2023-03-22T00:48:14.592Z,0.88
2023-03-22T00:48:37.408Z,1.10
2023-03-22T00:48:58.973Z,1.02
2023-03-22T00:49:21.770Z,1.20
2023-03-22T00:49:43.570Z,1.15
2023-03-22T00:50:07.605Z,1.02
2023-03-22T00:50:30.222Z,0.98
2023-03-22T00:50:51.920Z,0.82
2023-03-22T00:51:14.270Z,0.90
2023-03-22T00:51:35.938Z,1.10
2023-03-22T00:51:58.553Z,1.17
2023-03-22T00:52:21.356Z,0.80
2023-03-22T00:52:43.320Z,0.80
2023-03-22T00:53:05.809Z,0.85
2023-03-22T00:53:29.080Z,1.02
2023-03-22T00:53:54.301Z,0.80
2023-03-22T00:54:17.315Z,0.82
2023-03-22T00:54:41.918Z,0.80
2023-03-22T00:55:08.379Z,0.90
2023-03-22T00:55:30.446Z,0.85
2023-03-22T00:55:54.406Z,0.85
2023-03-22T00:56:16.263Z,1.10
2023-03-22T00:56:45.408Z,0.80
2023-03-22T00:57:08.421Z,0.90
2023-03-22T00:57:31.342Z,1.20
2023-03-22T00:57:53.217Z,0.75
2023-03-22T00:58:15.220Z,0.85
2023-03-22T00:58:37.142Z,1.05
2023-03-22T00:58:59.715Z,0.95
2023-03-22T00:59:21.996Z,1.00
2023-03-22T00:59:43.879Z,0.95
2023-03-22T01:00:16.009Z,0.60
2023-03-22T01:00:41.096Z,1.08
2023-03-22T01:01:03.008Z,1.10
2023-03-22T01:01:24.821Z,0.98
2023-03-22T01:01:48.723Z,1.10
2023-03-22T01:02:13.476Z,1.05
2023-03-22T01:02:35.205Z,1.08
2023-03-22T01:02:59.704Z,1.02
2023-03-22T01:03:22.028Z,0.88
2023-03-22T01:03:45.724Z,0.80
2023-03-22T01:04:15.287Z,0.70
2023-03-22T01:04:37.045Z,0.80
2023-03-22T01:05:00.351Z,1.17
2023-03-22T01:05:22.065Z,1.27
2023-03-22T01:05:45.463Z,0.90
2023-03-22T01:06:08.162Z,0.93
2023-03-22T01:06:31.015Z,1.00
2023-03-22T01:06:59.291Z,0.80
2023-03-22T01:07:22.116Z,0.85
2023-03-22T01:07:44.793Z,1.15
2023-03-22T01:08:08.869Z,1.20
2023-03-22T01:08:33.470Z,0.80
2023-03-22T01:08:57.281Z,0.70
2023-03-22T01:09:23.865Z,0.70
2023-03-22T01:09:46.604Z,1.20
2023-03-22T01:10:10.585Z,0.95
2023-03-22T01:10:32.919Z,1.10
2023-03-22T01:10:55.875Z,1.05
2023-03-22T01:11:18.750Z,1.30
2023-03-22T01:11:41.007Z,1.50
2023-03-22T01:12:02.830Z,1.00
2023-03-22T01:12:24.509Z,1.15
2023-03-22T01:12:46.350Z,1.40
2023-03-22T01:13:09.675Z,0.68
2023-03-22T01:13:31.420Z,1.02
2023-03-22T01:13:56.158Z,1.25
2023-03-22T01:14:19.460Z,0.65
2023-03-22T01:14:42.104Z,0.80
2023-03-22T01:15:50.522Z,1.20
2023-03-22T01:16:13.401Z,1.10
2023-03-22T01:16:35.744Z,0.95
2023-03-22T01:16:57.713Z,0.75
2023-03-22T01:17:19.670Z,1.02
2023-03-22T01:17:43.255Z,0.70
2023-03-22T01:18:05.551Z,0.85
2023-03-22T01:18:27.176Z,0.98
2023-03-22T01:18:48.818Z,1.30
2023-03-22T01:19:11.787Z,0.95
2023-03-22T01:19:33.798Z,1.20
2023-03-22T01:19:55.784Z,0.82
2023-03-22T01:20:18.185Z,1.10
2023-03-22T01:20:41.027Z,0.88
2023-03-22T01:21:03.186Z,0.85
2023-03-22T01:21:25.031Z,0.80
2023-03-22T01:21:46.828Z,0.82
2023-03-22T01:22:08.670Z,0.88
2023-03-22T01:22:31.848Z,0.80
2023-03-22T01:22:53.961Z,0.80
2023-03-22T01:23:15.889Z,0.95
2023-03-22T01:23:38.959Z,1.00
2023-03-22T01:24:00.684Z,1.02
2023-03-22T01:24:22.654Z,0.70
2023-03-22T01:24:44.433Z,0.70
2023-03-22T01:25:07.024Z,1.30
2023-03-22T01:25:31.639Z,1.30
2023-03-22T01:25:53.303Z,0.85
2023-03-22T01:26:16.383Z,1.27
2023-03-22T01:26:38.855Z,1.17
2023-03-22T01:27:00.786Z,1.20
2023-03-22T01:27:23.370Z,1.10
2023-03-22T01:27:45.401Z,1.17
2023-03-22T01:28:07.716Z,0.82
2023-03-22T01:28:30.307Z,1.02
2023-03-22T01:28:52.930Z,1.35
2023-03-22T01:29:15.587Z,1.08
2023-03-22T01:29:37.337Z,1.00
2023-03-22T01:29:58.956Z,0.85
2023-03-22T01:30:20.668Z,0.98
2023-03-22T01:30:43.569Z,0.77
2023-03-22T01:31:05.711Z,0.88
2023-03-22T01:31:27.413Z,0.90
2023-03-22T01:31:49.510Z,0.80
2023-03-22T01:32:11.288Z,0.95
2023-03-22T01:32:34.222Z,0.75
2023-03-22T01:32:55.818Z,0.98
2023-03-22T01:33:17.946Z,0.95
2023-03-22T01:33:39.783Z,0.90
2023-03-22T01:34:02.589Z,0.93
2023-03-22T01:34:24.410Z,0.90
2023-03-22T01:34:46.078Z,1.08
2023-03-22T01:35:09.986Z,1.00
2023-03-22T01:35:33.156Z,0.95
2023-03-22T01:35:56.315Z,0.77
2023-03-22T01:36:18.400Z,1.08
2023-03-22T01:36:40.123Z,1.20
2023-03-22T01:37:02.189Z,1.00
2023-03-22T01:37:27.554Z,0.93
2023-03-22T01:37:50.190Z,0.80
2023-03-22T01:38:13.239Z,0.88
2023-03-22T01:38:45.415Z,0.80
2023-03-22T01:39:09.320Z,0.73
2023-03-22T01:39:32.820Z,0.82
2023-03-22T01:39:58.813Z,0.80
2023-03-22T01:40:20.705Z,0.60
2023-03-22T01:40:42.800Z,0.95
2023-03-22T01:41:05.869Z,0.95
2023-03-22T01:41:35.026Z,1.00
2023-03-22T01:42:02.332Z,0.50
2023-03-22T01:42:25.790Z,0.95
2023-03-22T01:42:49.171Z,1.00
2023-03-22T01:43:15.896Z,1.38
2023-03-22T01:43:38.205Z,1.13
2023-03-22T01:44:13.599Z,0.90
2023-03-22T01:44:36.623Z,1.23
2023-03-22T01:45:38.129Z,1.30
2023-03-22T01:46:01.266Z,1.02
2023-03-22T01:46:25.797Z,1.08
2023-03-22T01:46:49.053Z,0.88
2023-03-22T01:47:11.658Z,0.70
2023-03-22T01:47:35.241Z,1.20
2023-03-22T01:48:02.181Z,1.08
2023-03-22T01:48:31.323Z,1.25
2023-03-22T01:48:53.243Z,1.13
2023-03-22T01:49:18.153Z,1.20
2023-03-22T01:49:40.797Z,0.60
2023-03-22T01:50:02.573Z,0.80
2023-03-22T01:50:25.913Z,0.88
2023-03-22T01:50:56.726Z,1.10
2023-03-22T01:51:25.038Z,0.90
2023-03-22T01:52:00.613Z,1.10
2023-03-22T01:52:31.393Z,0.95
2023-03-22T01:53:09.628Z,0.95
2023-03-22T01:53:36.387Z,0.90
2023-03-22T01:54:02.421Z,0.98
2023-03-22T01:54:30.092Z,1.50
2023-03-22T01:54:55.191Z,1.08
2023-03-22T01:55:28.057Z,1.02
2023-03-22T01:56:03.896Z,1.17
2023-03-22T01:56:30.188Z,0.98
2023-03-22T01:56:54.848Z,1.08
2023-03-22T01:57:26.758Z,0.75
2023-03-22T01:57:50.575Z,1.20
2023-03-22T01:58:26.074Z,0.90
2023-03-22T01:58:55.358Z,0.98
2023-03-22T01:59:26.803Z,1.10
2023-03-22T02:00:18.868Z,0.90
2023-03-22T02:01:08.373Z,1.10
2023-03-22T02:01:47.122Z,0.90
2023-03-22T02:02:19.865Z,1.17
2023-03-22T02:02:52.379Z,0.70
2023-03-22T02:03:31.216Z,1.20
2023-03-22T02:03:58.400Z,1.13
2023-03-22T02:04:23.439Z,0.85
2023-03-22T02:04:50.418Z,1.00
2023-03-22T02:05:13.143Z,0.80
2023-03-22T02:05:37.425Z,0.90
2023-03-22T02:05:59.884Z,0.80
2023-03-22T02:06:22.170Z,1.27
2023-03-22T02:06:51.629Z,0.90
2023-03-22T02:07:25.850Z,0.90
2023-03-22T02:07:48.847Z,1.10
2023-03-22T02:08:10.546Z,0.90
2023-03-22T02:08:48.238Z,1.13
2023-03-22T02:09:17.309Z,1.45
2023-03-22T02:09:41.310Z,0.77
2023-03-22T02:10:04.960Z,0.93
2023-03-22T02:10:37.552Z,0.73
2023-03-22T02:11:02.651Z,0.75
2023-03-22T02:11:30.864Z,0.90
2023-03-22T02:12:05.986Z,0.82
2023-03-22T02:12:38.373Z,1.02
2023-03-22T02:13:38.880Z,0.82
2023-03-22T02:14:39.340Z,0.98
2023-03-22T02:15:47.240Z,0.88
2023-03-22T02:16:43.649Z,1.00
2023-03-22T02:17:25.951Z,0.90
2023-03-22T02:18:11.317Z,0.60
2023-03-22T02:18:47.005Z,0.73
2023-03-22T02:19:35.713Z,0.75
2023-03-22T02:20:38.503Z,0.60
2023-03-22T02:21:28.947Z,2.13
2023-03-22T02:22:22.055Z,5.43
2023-03-22T02:23:09.113Z,4.47
2023-03-22T02:24:09.615Z,3.80
2023-03-22T02:25:07.188Z,3.75
2023-03-22T02:25:59.124Z,1.33
2023-03-22T02:26:43.925Z,1.08
2023-03-22T02:27:28.874Z,1.00
2023-03-22T02:28:15.685Z,1.45
2023-03-22T02:28:45.581Z,1.15
2023-03-22T02:29:15.179Z,0.60
2023-03-22T02:29:45.016Z,1.05
2023-03-22T02:30:30.835Z,0.80
2023-03-22T02:31:15.360Z,1.15
2023-03-22T02:32:04.125Z,0.80
2023-03-22T02:33:23.969Z,0.93
2023-03-22T02:34:27.233Z,1.05
2023-03-22T02:35:21.021Z,1.20
2023-03-22T02:35:55.883Z,0.73
2023-03-22T02:36:48.317Z,0.85
2023-03-22T02:37:47.408Z,0.90
2023-03-22T02:38:37.008Z,0.95
2023-03-22T02:39:32.513Z,1.08
2023-03-22T02:39:59.318Z,0.90
2023-03-22T02:40:28.991Z,0.60
2023-03-22T02:40:57.364Z,0.75
2023-03-22T02:41:29.904Z,0.75
2023-03-22T02:42:04.111Z,0.70
2023-03-22T02:42:40.776Z,1.00
2023-03-22T02:43:12.830Z,0.90
2023-03-22T02:43:39.193Z,0.90
2023-03-22T02:44:10.183Z,1.20
2023-03-22T02:44:41.064Z,1.20
2023-03-22T02:45:10.931Z,0.80
2023-03-22T02:45:37.957Z,0.80
2023-03-22T02:46:06.276Z,1.02
2023-03-22T02:46:32.688Z,1.20
2023-03-22T02:47:03.944Z,1.00
2023-03-22T02:47:35.444Z,0.80
2023-03-22T02:48:05.733Z,1.23
2023-03-22T02:48:33.699Z,0.75
2023-03-22T02:49:03.903Z,0.80
2023-03-22T02:49:36.130Z,0.98
2023-03-22T02:50:04.639Z,1.00
2023-03-22T02:50:31.521Z,0.73
2023-03-22T02:50:55.656Z,0.73
2023-03-22T02:51:21.321Z,0.70
2023-03-22T02:51:47.239Z,0.98
2023-03-22T02:52:17.742Z,1.33
2023-03-22T02:52:44.147Z,0.90
2023-03-22T02:53:14.684Z,0.85
2023-03-22T02:53:42.729Z,1.27
2023-03-22T02:54:09.226Z,1.00
2023-03-22T02:54:39.164Z,0.90
2023-03-22T02:55:05.950Z,0.87
2023-03-22T02:55:33.541Z,1.17
2023-03-22T02:55:58.501Z,1.40
2023-03-22T02:56:26.575Z,1.08
2023-03-22T02:56:53.319Z,0.98
2023-03-22T02:57:22.778Z,0.80
2023-03-22T02:57:51.154Z,0.80
2023-03-22T02:58:17.811Z,1.00
2023-03-22T02:58:45.679Z,0.60
2023-03-22T02:59:12.179Z,0.82
2023-03-22T02:59:38.389Z,0.90
2023-03-22T03:00:04.084Z,0.85
2023-03-22T03:00:26.904Z,0.80
2023-03-22T03:00:53.078Z,0.82
2023-03-22T03:01:19.986Z,0.80
2023-03-22T03:01:46.350Z,0.70
2023-03-22T03:02:12.045Z,0.40
2023-03-22T03:02:35.251Z,0.70
2023-03-22T03:02:59.987Z,0.98
2023-03-22T03:03:25.589Z,0.70
2023-03-22T03:03:51.235Z,0.90
2023-03-22T03:04:17.809Z,0.82
2023-03-22T03:04:44.733Z,1.10
2023-03-22T03:05:11.905Z,0.60
2023-03-22T03:05:35.223Z,0.80
2023-03-22T03:06:00.809Z,0.82
2023-03-22T03:06:26.272Z,1.17
2023-03-22T03:06:52.144Z,0.73
2023-03-22T03:07:17.717Z,1.23
2023-03-22T03:07:43.314Z,0.90
2023-03-22T03:08:09.236Z,1.10
2023-03-22T03:08:35.541Z,0.60
2023-03-22T03:08:58.272Z,0.40
2023-03-22T03:09:22.569Z,0.70
2023-03-22T03:09:46.774Z,0.82
2023-03-22T03:10:13.274Z,0.70
2023-03-22T03:10:38.396Z,0.82
2023-03-22T03:11:01.463Z,0.75
2023-03-22T03:11:24.300Z,0.80
2023-03-22T03:11:48.375Z,0.90
2023-03-22T03:12:14.805Z,0.80
2023-03-22T03:12:36.567Z,0.60
2023-03-22T03:12:58.198Z,0.85
2023-03-22T03:13:20.347Z,1.00
2023-03-22T03:13:43.014Z,0.80
2023-03-22T03:14:05.646Z,0.70
2023-03-22T03:14:29.523Z,0.80
2023-03-22T03:14:52.201Z,0.82
2023-03-22T03:15:16.861Z,1.05
2023-03-22T03:15:42.425Z,1.30
2023-03-22T03:16:07.523Z,0.57
2023-03-22T03:16:34.982Z,0.90
2023-03-22T03:17:13.187Z,0.70
2023-03-22T03:17:45.952Z,0.70
2023-03-22T03:18:18.692Z,0.65
2023-03-22T03:18:46.821Z,0.60
2023-03-22T03:19:19.827Z,1.15
2023-03-22T03:19:49.864Z,1.00
2023-03-22T03:20:34.404Z,0.90
2023-03-22T03:21:02.908Z,0.98
2023-03-22T03:21:35.553Z,1.15
2023-03-22T03:22:04.231Z,0.65
2023-03-22T03:22:41.286Z,0.95
2023-03-22T03:23:15.233Z,0.70
2023-03-22T03:23:50.232Z,0.95
2023-03-22T03:24:23.398Z,0.73
2023-03-22T03:24:51.716Z,0.73
2023-03-22T03:25:24.118Z,0.60
2023-03-22T03:25:57.805Z,0.90
2023-03-22T03:26:29.038Z,0.82
2023-03-22T03:26:59.808Z,1.00
2023-03-22T03:27:27.997Z,1.13
2023-03-22T03:27:59.270Z,0.90
2023-03-22T03:28:30.376Z,1.00
2023-03-22T03:28:58.321Z,0.80
2023-03-22T03:29:25.388Z,1.50
2023-03-22T03:29:51.164Z,0.80
2023-03-22T03:30:16.496Z,0.82
2023-03-22T03:30:46.105Z,0.80
2023-03-22T03:31:16.691Z,1.00
2023-03-22T03:31:44.916Z,1.05
2023-03-22T03:32:11.060Z,0.70
2023-03-22T03:32:36.181Z,0.70
2023-03-22T03:33:09.294Z,1.00
2023-03-22T03:33:34.335Z,1.00
2023-03-22T03:34:09.659Z,0.90
2023-03-22T03:34:36.873Z,0.85
2023-03-22T03:35:05.401Z,1.20
2023-03-22T03:35:32.497Z,1.15
2023-03-22T03:36:00.634Z,1.00
2023-03-22T03:36:25.304Z,1.20
2023-03-22T03:36:53.781Z,0.63
2023-03-22T03:37:22.684Z,1.00
2023-03-22T03:37:47.902Z,1.05
2023-03-22T03:38:14.671Z,1.30
2023-03-22T03:38:40.962Z,0.85
2023-03-22T03:39:07.763Z,0.90
2023-03-22T03:39:33.461Z,1.08
2023-03-22T03:40:02.474Z,0.85
2023-03-22T03:40:29.418Z,0.90
2023-03-22T03:40:55.972Z,0.95
2023-03-22T03:41:20.058Z,0.80
2023-03-22T03:41:46.351Z,0.80
2023-03-22T03:42:14.321Z,0.63
2023-03-22T03:42:38.330Z,2.85
2023-03-22T03:43:03.744Z,8.23
2023-03-22T03:43:25.536Z,3.85
2023-03-22T03:43:49.228Z,4.60
2023-03-22T03:44:11.547Z,2.25
2023-03-22T03:44:36.139Z,1.85
2023-03-22T03:45:00.881Z,3.67
2023-03-22T03:45:23.658Z,2.63
2023-03-22T03:45:45.740Z,3.30
2023-03-22T03:46:08.476Z,2.00
2023-03-22T03:46:30.766Z,1.17
2023-03-22T03:46:54.854Z,0.93
2023-03-22T03:47:17.204Z,1.17
2023-03-22T03:47:44.257Z,1.33
2023-03-22T03:48:09.485Z,0.80
2023-03-22T03:48:35.539Z,0.80
2023-03-22T03:48:58.708Z,1.05
2023-03-22T03:49:23.853Z,0.80
2023-03-22T03:49:47.788Z,0.90
2023-03-22T03:50:11.496Z,0.93
2023-03-22T03:50:34.520Z,1.00
2023-03-22T03:50:58.085Z,0.75
2023-03-22T03:51:19.921Z,0.93
2023-03-22T03:51:49.412Z,1.10
2023-03-22T03:52:13.265Z,0.95
2023-03-22T03:52:35.595Z,0.90
2023-03-22T03:52:58.268Z,1.30
2023-03-22T03:53:20.078Z,0.65
2023-03-22T03:53:42.792Z,0.80
2023-03-22T03:54:04.572Z,0.95
2023-03-22T03:54:26.477Z,1.02
2023-03-22T03:54:49.541Z,0.80
2023-03-22T03:55:16.342Z,0.70
2023-03-22T03:55:38.978Z,1.02
2023-03-22T03:56:01.093Z,1.00
2023-03-22T03:56:29.777Z,0.77
2023-03-22T03:56:54.705Z,0.80
2023-03-22T03:57:17.388Z,1.00
2023-03-22T03:57:39.366Z,0.82
2023-03-22T03:58:01.009Z,0.85
2023-03-22T03:58:23.111Z,0.85
2023-03-22T03:58:45.856Z,0.98
2023-03-22T03:59:09.089Z,0.73
2023-03-22T03:59:32.835Z,1.10
2023-03-22T04:00:04.558Z,1.30
2023-03-22T04:00:47.618Z,1.08
2023-03-22T04:01:28.560Z,0.90
2023-03-22T04:02:10.894Z,0.90
2023-03-22T04:02:34.007Z,1.00
2023-03-22T04:02:56.366Z,0.60
2023-03-22T04:03:34.045Z,0.73
2023-03-22T04:04:01.647Z,0.85
2023-03-22T04:04:43.616Z,0.85
2023-03-22T04:05:07.397Z,1.08
2023-03-22T04:05:29.022Z,1.13
2023-03-22T04:05:50.646Z,0.90
2023-03-22T04:06:12.583Z,0.82
2023-03-22T04:06:40.178Z,0.95
2023-03-22T04:07:07.089Z,1.05
2023-03-22T04:07:31.298Z,1.10
2023-03-22T04:07:53.190Z,0.95
2023-03-22T04:08:15.967Z,1.20
2023-03-22T04:08:37.919Z,0.93
2023-03-22T04:09:01.717Z,1.00
2023-03-22T04:09:29.901Z,0.90
2023-03-22T04:09:58.237Z,1.13
2023-03-22T04:10:26.186Z,1.00
2023-03-22T04:10:50.696Z,0.85
2023-03-22T04:11:13.283Z,0.90
2023-03-22T04:11:36.083Z,1.10
2023-03-22T04:12:00.190Z,0.80
2023-03-22T04:12:21.795Z,0.90
2023-03-22T04:13:03.431Z,1.02
2023-03-22T04:13:25.730Z,1.17
2023-03-22T04:13:51.263Z,0.98
2023-03-22T04:14:16.337Z,0.80
2023-03-22T04:14:41.799Z,0.80
2023-03-22T04:15:14.751Z,1.00
2023-03-22T04:15:39.445Z,0.93
2023-03-22T04:16:07.316Z,0.82
2023-03-22T04:16:31.938Z,0.90
2023-03-22T04:16:54.857Z,1.15
2023-03-22T04:17:19.756Z,0.90
2023-03-22T04:17:41.974Z,0.80
2023-03-22T04:18:04.848Z,1.02
2023-03-22T04:18:29.624Z,0.77
2023-03-22T04:18:53.646Z,0.90
2023-03-22T04:19:16.223Z,0.65
2023-03-22T04:19:37.824Z,0.60
2023-03-22T04:19:59.663Z,1.20
2023-03-22T04:20:22.296Z,0.98
2023-03-22T04:20:49.396Z,0.88
2023-03-22T04:21:12.302Z,0.80
2023-03-22T04:22:07.235Z,1.20
2023-03-22T04:22:29.094Z,1.35
2023-03-22T04:22:52.559Z,1.23
2023-03-22T04:23:14.921Z,0.80
2023-03-22T04:23:36.925Z,0.80
2023-03-22T04:23:59.883Z,1.00
2023-03-22T04:24:24.364Z,0.80
2023-03-22T04:24:50.092Z,0.82
2023-03-22T04:25:18.106Z,1.10
2023-03-22T04:25:50.502Z,1.00
2023-03-22T04:26:21.415Z,1.00
2023-03-22T04:27:00.095Z,0.95
2023-03-22T04:27:30.843Z,1.00
2023-03-22T04:27:56.353Z,0.80
2023-03-22T04:28:19.875Z,1.00
2023-03-22T04:28:43.438Z,0.82
2023-03-22T04:29:06.617Z,1.45
2023-03-22T04:29:32.066Z,1.30
2023-03-22T04:30:07.596Z,1.30
2023-03-22T04:30:51.873Z,0.70
2023-03-22T04:31:37.577Z,1.15
2023-03-22T04:32:19.467Z,0.75
2023-03-22T04:32:41.098Z,0.70
2023-03-22T04:33:07.264Z,1.30
2023-03-22T04:33:54.767Z,1.05
2023-03-22T04:34:38.778Z,1.05
2023-03-22T04:35:06.369Z,1.10
2023-03-22T04:35:28.263Z,1.02
2023-03-22T04:35:50.610Z,0.70
2023-03-22T04:36:17.473Z,1.00
2023-03-22T04:37:02.329Z,1.08
2023-03-22T04:37:45.644Z,0.80
2023-03-22T04:38:12.957Z,0.80
2023-03-22T04:38:35.408Z,1.02
2023-03-22T04:38:57.639Z,0.68
2023-03-22T04:39:21.145Z,0.60
2023-03-22T04:39:51.992Z,1.05
2023-03-22T04:40:17.446Z,1.02
2023-03-22T04:41:02.181Z,1.10
2023-03-22T04:41:35.939Z,0.98
2023-03-22T04:42:00.110Z,1.08
2023-03-22T04:42:23.407Z,2.05
2023-03-22T04:42:57.620Z,3.40
2023-03-22T04:43:39.276Z,2.35
2023-03-22T04:44:05.981Z,1.63
2023-03-22T04:44:32.692Z,5.13
2023-03-22T04:44:54.570Z,4.82
2023-03-22T04:45:16.411Z,2.63
2023-03-22T04:45:50.985Z,1.52
2023-03-22T04:46:17.811Z,2.17
2023-03-22T04:46:44.975Z,1.70
2023-03-22T04:47:06.835Z,1.00
2023-03-22T04:47:30.261Z,1.08
2023-03-22T04:47:56.519Z,2.05
2023-03-22T04:48:22.120Z,3.17
2023-03-22T04:48:44.755Z,2.70
2023-03-22T04:49:07.833Z,1.55
2023-03-22T04:49:34.887Z,1.17
2023-03-22T04:49:57.366Z,1.08
2023-03-22T04:50:20.883Z,0.80
2023-03-22T04:50:47.787Z,0.80
2023-03-22T04:51:11.409Z,0.70
2023-03-22T04:51:39.643Z,1.23
2023-03-22T04:52:37.451Z,0.93
2023-03-22T04:52:59.703Z,0.80
2023-03-22T04:53:27.125Z,0.95
2023-03-22T04:53:53.125Z,1.00
2023-03-22T04:54:14.850Z,1.10
2023-03-22T04:54:38.729Z,0.95
2023-03-22T04:55:01.228Z,0.95
2023-03-22T04:55:23.936Z,1.10
2023-03-22T04:55:45.592Z,1.00
2023-03-22T04:56:11.758Z,0.88
2023-03-22T04:56:33.662Z,0.70
2023-03-22T04:56:56.537Z,0.95
2023-03-22T04:57:20.000Z,0.88
2023-03-22T04:57:43.126Z,1.00
2023-03-22T04:58:05.483Z,0.73
2023-03-22T04:58:28.159Z,0.70
2023-03-22T04:58:49.800Z,1.02
2023-03-22T04:59:11.543Z,1.10
2023-03-22T04:59:33.268Z,1.00
2023-03-22T04:59:56.117Z,0.90
2023-03-22T05:00:18.687Z,0.77
2023-03-22T05:00:42.313Z,0.60
2023-03-22T05:01:05.377Z,0.80
2023-03-22T05:01:27.208Z,1.08
2023-03-22T05:01:59.999Z,0.98
2023-03-22T05:02:26.410Z,0.95
2023-03-22T05:02:49.598Z,0.73
2023-03-22T05:03:39.249Z,0.70
2023-03-22T05:04:01.062Z,0.90
2023-03-22T05:04:23.015Z,1.30
2023-03-22T05:04:50.323Z,1.17
2023-03-22T05:05:25.906Z,1.63
2023-03-22T05:05:52.659Z,1.10
2023-03-22T05:06:16.163Z,1.02
2023-03-22T05:06:48.995Z,0.93
2023-03-22T05:07:17.973Z,0.80
2023-03-22T05:07:45.928Z,1.20
2023-03-22T05:08:07.610Z,1.23
2023-03-22T05:08:30.665Z,1.25
2023-03-22T05:08:53.291Z,1.00
2023-03-22T05:09:16.879Z,1.02
2023-03-22T05:09:38.574Z,0.90
2023-03-22T05:10:00.550Z,0.95
2023-03-22T05:10:23.211Z,0.90
2023-03-22T05:10:44.882Z,1.00
2023-03-22T05:11:10.211Z,0.90
2023-03-22T05:11:31.983Z,0.70
2023-03-22T05:12:10.425Z,1.20
2023-03-22T05:12:44.913Z,0.80
2023-03-22T05:13:13.142Z,0.80
2023-03-22T05:13:39.960Z,0.90
2023-03-22T05:14:02.650Z,1.00
2023-03-22T05:14:27.248Z,1.20
2023-03-22T05:14:52.248Z,1.02
2023-03-22T05:15:19.403Z,0.90
2023-03-22T05:15:45.543Z,0.90
2023-03-22T05:16:10.155Z,1.00
2023-03-22T05:16:40.617Z,0.93
2023-03-22T05:17:03.830Z,0.90
2023-03-22T05:17:28.737Z,1.30
2023-03-22T05:17:52.425Z,1.10
2023-03-22T05:18:15.430Z,1.33
2023-03-22T05:18:42.332Z,0.85
2023-03-22T05:19:04.079Z,0.82
2023-03-22T05:19:25.867Z,1.20
2023-03-22T05:19:47.729Z,1.30
2023-03-22T05:20:12.417Z,2.30
2023-03-22T05:20:36.470Z,3.92
2023-03-22T05:21:06.828Z,4.20
2023-03-22T05:21:36.588Z,3.50
2023-03-22T05:22:02.101Z,2.03
2023-03-22T05:22:40.427Z,2.40
2023-03-22T05:23:05.048Z,3.17
2023-03-22T05:23:28.170Z,2.60
2023-03-22T05:23:51.765Z,3.80
2023-03-22T05:24:14.743Z,4.30
2023-03-22T05:24:40.113Z,1.98
2023-03-22T05:25:08.355Z,1.30
2023-03-22T05:25:30.759Z,1.10
2023-03-22T05:25:54.471Z,1.20
2023-03-22T05:26:20.417Z,1.27
2023-03-22T05:26:42.395Z,0.95
2023-03-22T05:27:05.749Z,1.05
2023-03-22T05:27:31.664Z,1.05
2023-03-22T05:28:01.919Z,1.30
2023-03-22T05:28:44.040Z,1.17
2023-03-22T05:29:12.724Z,1.05
2023-03-22T05:29:56.783Z,0.98
2023-03-22T05:30:25.229Z,0.93
2023-03-22T05:30:56.952Z,1.02
2023-03-22T05:31:41.603Z,1.10
2023-03-22T05:32:03.343Z,1.30
2023-03-22T05:32:29.213Z,0.88
2023-03-22T05:32:50.931Z,0.98
2023-03-22T05:33:13.181Z,0.80
2023-03-22T05:33:39.399Z,0.88
2023-03-22T05:34:04.503Z,0.95
2023-03-22T05:34:35.555Z,1.23
2023-03-22T05:35:06.934Z,1.00
2023-03-22T05:35:36.150Z,0.98
2023-03-22T05:35:58.205Z,1.08
2023-03-22T05:36:23.094Z,0.80
2023-03-22T05:37:04.658Z,1.15
2023-03-22T05:37:46.022Z,1.10
2023-03-22T05:38:10.267Z,1.02
2023-03-22T05:38:36.282Z,0.95
2023-03-22T05:38:59.418Z,0.88
2023-03-22T05:39:21.325Z,1.00
2023-03-22T05:39:43.849Z,1.50
2023-03-22T05:40:10.555Z,3.05
2023-03-22T05:40:36.528Z,2.90
2023-03-22T05:40:58.339Z,1.83
2023-03-22T05:41:22.053Z,1.75
2023-03-22T05:41:43.779Z,2.20
2023-03-22T05:42:06.631Z,2.80
2023-03-22T05:42:30.668Z,2.17
2023-03-22T05:42:52.790Z,1.88
2023-03-22T05:43:20.288Z,1.90
2023-03-22T05:43:44.577Z,2.28
2023-03-22T05:44:06.628Z,2.88
2023-03-22T05:44:30.808Z,2.38
2023-03-22T05:45:02.482Z,1.60
2023-03-22T05:45:25.675Z,1.25
2023-03-22T05:46:09.670Z,1.40
2023-03-22T05:46:36.611Z,1.10
2023-03-22T05:47:17.411Z,1.25
2023-03-22T05:47:52.059Z,1.05
2023-03-22T05:48:17.469Z,1.15
2023-03-22T05:48:40.601Z,1.00
2023-03-22T05:49:03.309Z,1.17
2023-03-22T05:49:26.740Z,0.98
2023-03-22T05:49:50.593Z,0.95
2023-03-22T05:50:14.764Z,1.17
2023-03-22T05:50:36.675Z,1.20
2023-03-22T05:50:59.614Z,1.10
2023-03-22T05:51:25.929Z,0.85
2023-03-22T05:51:48.563Z,0.90
2023-03-22T05:52:11.497Z,0.90
2023-03-22T05:52:45.625Z,1.20
2023-03-22T05:53:22.454Z,1.10
2023-03-22T05:53:53.358Z,1.00
2023-03-22T05:54:19.006Z,1.08
2023-03-22T05:54:44.616Z,1.05
2023-03-22T05:55:08.977Z,1.10
2023-03-22T05:55:33.586Z,0.90
2023-03-22T05:56:00.776Z,0.93
2023-03-22T05:56:25.665Z,0.68
2023-03-22T05:56:55.920Z,0.90